Leroy, New York
Current Conditions -  °F | °C
As of 11:54 PM on Friday 28 Nov 2014 (Local Time) from KROC Reporting Station
Overcast Overcast  
Wind Chill: 19°   Ceiling: 4000
Heat Index: 25°   Visibility: 10mi
Dew Point: 17°   Wind: 5mph
Humidity: 72%   Direction: 170°S
Pressure: 30.21"   Gusts: NA
Location:  42.9765°N, 77.9749°W
Report Text: KROC 290454Z 17004KT 10SM FEW027 OVC040 M04/M08 A3021 RMK AO2 SLP242 T10391083 410111044
Loading
Personal Weather Stations






























Interactive Weather Map New forecast layout! Learn more

10-Day Weather Forecast

Advertisements
Track Severe Weather on mobile